sensor_id;sensor_type;location;lat;lon;timestamp;pressure;altitude;pressure_sealevel;temperature;humidity
42001;BME280;27689;48.390;10.856;2022-08-03T00:00:43;96241.72;;;18.72;84.60
42001;BME280;27689;48.390;10.856;2022-08-03T00:03:27;96242.97;;;18.69;84.53
42001;BME280;27689;48.390;10.856;2022-08-03T00:06:10;96242.53;;;18.65;85.07
42001;BME280;27689;48.390;10.856;2022-08-03T00:08:54;96235.94;;;18.61;85.63
42001;BME280;27689;48.390;10.856;2022-08-03T00:11:38;96244.09;;;18.60;85.61
42001;BME280;27689;48.390;10.856;2022-08-03T00:14:22;96240.38;;;18.54;85.89
42001;BME280;27689;48.390;10.856;2022-08-03T00:17:06;96237.09;;;18.52;85.18
42001;BME280;27689;48.390;10.856;2022-08-03T00:19:50;96233.19;;;18.48;85.00
42001;BME280;27689;48.390;10.856;2022-08-03T00:22:34;96235.38;;;18.45;85.29
42001;BME280;27689;48.390;10.856;2022-08-03T00:25:18;96238.41;;;18.42;85.30
42001;BME280;27689;48.390;10.856;2022-08-03T00:28:04;96229.84;;;18.40;84.57
42001;BME280;27689;48.390;10.856;2022-08-03T00:30:48;96239.19;;;18.36;84.82
42001;BME280;27689;48.390;10.856;2022-08-03T00:33:32;96235.47;;;18.30;85.66
42001;BME280;27689;48.390;10.856;2022-08-03T00:36:16;96231.97;;;18.23;86.54
42001;BME280;27689;48.390;10.856;2022-08-03T00:39:00;96228.88;;;18.19;86.49
42001;BME280;27689;48.390;10.856;2022-08-03T00:41:44;96225.78;;;18.16;85.93
42001;BME280;27689;48.390;10.856;2022-08-03T00:44:28;96228.97;;;18.11;86.45
42001;BME280;27689;48.390;10.856;2022-08-03T00:47:12;96221.66;;;18.13;86.58
42001;BME280;27689;48.390;10.856;2022-08-03T00:49:57;96227.75;;;18.07;86.87
42001;BME280;27689;48.390;10.856;2022-08-03T00:52:41;96233.41;;;18.04;86.90
42001;BME280;27689;48.390;10.856;2022-08-03T00:55:25;96236.59;;;17.93;88.69
42001;BME280;27689;48.390;10.856;2022-08-03T00:58:10;96233.50;;;17.89;88.01
42001;BME280;27689;48.390;10.856;2022-08-03T01:00:54;96231.66;;;17.90;87.79
42001;BME280;27689;48.390;10.856;2022-08-03T01:03:38;96238.16;;;17.87;88.12
42001;BME280;27689;48.390;10.856;2022-08-03T01:06:40;96233.31;;;17.91;87.58
42001;BME280;27689;48.390;10.856;2022-08-03T01:12:37;96221.13;;;17.75;90.13
42001;BME280;27689;48.390;10.856;2022-08-03T01:15:33;96231.00;;;17.67;91.49
42001;BME280;27689;48.390;10.856;2022-08-03T01:18:25;96224.13;;;17.72;90.81
42001;BME280;27689;48.390;10.856;2022-08-03T01:21:17;96226.22;;;17.77;90.14
42001;BME280;27689;48.390;10.856;2022-08-03T01:27:11;96218.00;;;17.72;89.38
42001;BME280;27689;48.390;10.856;2022-08-03T01:30:04;96218.84;;;17.72;89.06
42001;BME280;27689;48.390;10.856;2022-08-03T01:32:55;96214.28;;;17.66;89.22
42001;BME280;27689;48.390;10.856;2022-08-03T01:35:49;96224.50;;;17.69;89.48
42001;BME280;27689;48.390;10.856;2022-08-03T01:38:42;96222.88;;;17.68;90.10
42001;BME280;27689;48.390;10.856;2022-08-03T01:41:35;96221.22;;;17.67;90.29
42001;BME280;27689;48.390;10.856;2022-08-03T01:44:21;96217.47;;;17.61;91.00
42001;BME280;27689;48.390;10.856;2022-08-03T01:47:06;96214.13;;;17.53;92.97
42001;BME280;27689;48.390;10.856;2022-08-03T01:49:52;96217.59;;;17.53;92.67
42001;BME280;27689;48.390;10.856;2022-08-03T01:52:39;96216.38;;;17.56;91.95
42001;BME280;27689;48.390;10.856;2022-08-03T01:55:25;96219.03;;;17.56;91.32
42001;BME280;27689;48.390;10.856;2022-08-03T01:58:14;96220.03;;;17.55;91.65
42001;BME280;27689;48.390;10.856;2022-08-03T02:00:59;96207.56;;;17.49;91.28
42001;BME280;27689;48.390;10.856;2022-08-03T02:03:45;96220.19;;;17.47;91.96
42001;BME280;27689;48.390;10.856;2022-08-03T02:06:32;96218.25;;;17.41;92.85
42001;BME280;27689;48.390;10.856;2022-08-03T02:09:19;96223.75;;;17.39;93.31
42001;BME280;27689;48.390;10.856;2022-08-03T02:12:07;96221.66;;;17.35;93.51
42001;BME280;27689;48.390;10.856;2022-08-03T02:14:52;96217.63;;;17.39;92.66
42001;BME280;27689;48.390;10.856;2022-08-03T02:17:39;96218.44;;;17.39;92.26
42001;BME280;27689;48.390;10.856;2022-08-03T02:20:26;96222.09;;;17.38;91.83
42001;BME280;27689;48.390;10.856;2022-08-03T02:23:10;96215.09;;;17.31;91.72
42001;BME280;27689;48.390;10.856;2022-08-03T02:26:01;96225.06;;;17.28;91.62
42001;BME280;27689;48.390;10.856;2022-08-03T02:28:47;96218.47;;;17.24;91.49
42001;BME280;27689;48.390;10.856;2022-08-03T02:31:35;96222.94;;;17.24;91.51
42001;BME280;27689;48.390;10.856;2022-08-03T02:34:22;96216.19;;;17.21;90.40
42001;BME280;27689;48.390;10.856;2022-08-03T02:37:10;96221.25;;;17.16;90.46
42001;BME280;27689;48.390;10.856;2022-08-03T02:40:00;96217.50;;;17.11;89.92
42001;BME280;27689;48.390;10.856;2022-08-03T02:42:46;96211.75;;;17.07;90.68
42001;BME280;27689;48.390;10.856;2022-08-03T02:45:34;96218.06;;;17.06;90.73
42001;BME280;27689;48.390;10.856;2022-08-03T02:48:22;96223.44;;;16.98;94.04
42001;BME280;27689;48.390;10.856;2022-08-03T02:51:08;96214.03;;;16.96;93.51
42001;BME280;27689;48.390;10.856;2022-08-03T02:53:54;96212.03;;;16.98;93.49
42001;BME280;27689;48.390;10.856;2022-08-03T02:56:40;96214.63;;;16.91;94.38
42001;BME280;27689;48.390;10.856;2022-08-03T02:59:26;96205.84;;;16.90;94.58
42001;BME280;27689;48.390;10.856;2022-08-03T03:02:14;96212.56;;;16.93;93.72
42001;BME280;27689;48.390;10.856;2022-08-03T03:04:59;96207.50;;;16.91;93.36
42001;BME280;27689;48.390;10.856;2022-08-03T03:07:45;96207.22;;;16.86;93.54
42001;BME280;27689;48.390;10.856;2022-08-03T03:10:29;96209.03;;;16.86;94.14
42001;BME280;27689;48.390;10.856;2022-08-03T03:13:15;96209.50;;;16.89;93.85
42001;BME280;27689;48.390;10.856;2022-08-03T03:16:02;96208.03;;;16.87;94.06
42001;BME280;27689;48.390;10.856;2022-08-03T03:18:47;96202.94;;;16.85;93.70
42001;BME280;27689;48.390;10.856;2022-08-03T03:21:32;96206.38;;;16.86;93.52
42001;BME280;27689;48.390;10.856;2022-08-03T03:24:19;96200.47;;;16.84;94.28
42001;BME280;27689;48.390;10.856;2022-08-03T03:27:04;96209.03;;;16.86;94.56
42001;BME280;27689;48.390;10.856;2022-08-03T03:29:48;96198.63;;;16.84;94.73
42001;BME280;27689;48.390;10.856;2022-08-03T03:32:32;96202.94;;;16.85;94.02
42001;BME280;27689;48.390;10.856;2022-08-03T03:35:16;96199.00;;;16.81;95.60
42001;BME280;27689;48.390;10.856;2022-08-03T03:38:01;96205.28;;;16.80;94.60
42001;BME280;27689;48.390;10.856;2022-08-03T03:40:45;96202.63;;;16.80;94.99
42001;BME280;27689;48.390;10.856;2022-08-03T03:43:29;96198.53;;;16.78;94.50
42001;BME280;27689;48.390;10.856;2022-08-03T03:46:13;96204.84;;;16.77;95.54
42001;BME280;27689;48.390;10.856;2022-08-03T03:48:58;96209.50;;;16.75;96.81
42001;BME280;27689;48.390;10.856;2022-08-03T03:51:42;96195.44;;;16.74;97.70
42001;BME280;27689;48.390;10.856;2022-08-03T03:54:38;96205.03;;;16.75;97.32
42001;BME280;27689;48.390;10.856;2022-08-03T03:57:23;96207.03;;;16.73;98.72
42001;BME280;27689;48.390;10.856;2022-08-03T04:00:08;96203.56;;;16.73;98.05
42001;BME280;27689;48.390;10.856;2022-08-03T04:02:52;96203.09;;;16.69;99.19
42001;BME280;27689;48.390;10.856;2022-08-03T04:05:35;96215.63;;;16.75;99.12
42001;BME280;27689;48.390;10.856;2022-08-03T04:08:39;96209.88;;;16.72;99.54
42001;BME280;27689;48.390;10.856;2022-08-03T04:11:49;96220.63;;;16.70;99.81
42001;BME280;27689;48.390;10.856;2022-08-03T04:14:34;96215.69;;;16.67;100.00
42001;BME280;27689;48.390;10.856;2022-08-03T04:17:22;96218.34;;;16.67;100.00
42001;BME280;27689;48.390;10.856;2022-08-03T04:20:09;96210.81;;;16.56;100.00
42001;BME280;27689;48.390;10.856;2022-08-03T04:22:55;96208.19;;;16.56;100.00
42001;BME280;27689;48.390;10.856;2022-08-03T04:25:43;96220.41;;;16.57;100.00
42001;BME280;27689;48.390;10.856;2022-08-03T04:28:29;96222.59;;;16.53;100.00
42001;BME280;27689;48.390;10.856;2022-08-03T04:31:16;96221.94;;;16.51;100.00
42001;BME280;27689;48.390;10.856;2022-08-03T04:34:00;96226.03;;;16.39;100.00
42001;BME280;27689;48.390;10.856;2022-08-03T04:36:48;96227.03;;;16.38;100.00
42001;BME280;27689;48.390;10.856;2022-08-03T04:39:35;96231.97;;;16.41;100.00
42001;BME280;27689;48.390;10.856;2022-08-03T04:42:21;96235.34;;;16.50;100.00
42001;BME280;27689;48.390;10.856;2022-08-03T04:45:07;96241.56;;;16.57;100.00
42001;BME280;27689;48.390;10.856;2022-08-03T04:47:55;96236.09;;;16.58;100.00
42001;BME280;27689;48.390;10.856;2022-08-03T04:50:40;96244.47;;;16.62;100.00
42001;BME280;27689;48.390;10.856;2022-08-03T04:53:24;96243.50;;;16.63;100.00
42001;BME280;27689;48.390;10.856;2022-08-03T04:56:08;96242.16;;;16.67;100.00
42001;BME280;27689;48.390;10.856;2022-08-03T04:58:52;96257.31;;;16.73;100.00
42001;BME280;27689;48.390;10.856;2022-08-03T05:01:37;96250.63;;;16.77;100.00
42001;BME280;27689;48.390;10.856;2022-08-03T05:04:21;96253.47;;;16.76;100.00
42001;BME280;27689;48.390;10.856;2022-08-03T05:07:05;96250.44;;;16.79;100.00
42001;BME280;27689;48.390;10.856;2022-08-03T05:09:49;96252.38;;;16.85;100.00
42001;BME280;27689;48.390;10.856;2022-08-03T05:12:34;96258.50;;;16.85;100.00
42001;BME280;27689;48.390;10.856;2022-08-03T05:15:17;96256.97;;;16.91;100.00
42001;BME280;27689;48.390;10.856;2022-08-03T05:18:02;96258.03;;;16.97;100.00
42001;BME280;27689;48.390;10.856;2022-08-03T05:20:46;96259.13;;;17.02;100.00
42001;BME280;27689;48.390;10.856;2022-08-03T05:23:30;96251.25;;;17.09;100.00
42001;BME280;27689;48.390;10.856;2022-08-03T05:26:14;96254.00;;;17.15;100.00
42001;BME280;27689;48.390;10.856;2022-08-03T05:28:59;96252.66;;;17.19;100.00
42001;BME280;27689;48.390;10.856;2022-08-03T05:31:43;96258.84;;;17.26;100.00
42001;BME280;27689;48.390;10.856;2022-08-03T05:34:27;96253.44;;;17.35;99.57
42001;BME280;27689;48.390;10.856;2022-08-03T05:37:11;96247.56;;;17.39;99.42
42001;BME280;27689;48.390;10.856;2022-08-03T05:39:55;96249.31;;;17.47;99.42
42001;BME280;27689;48.390;10.856;2022-08-03T05:42:39;96252.47;;;17.57;99.83
42001;BME280;27689;48.390;10.856;2022-08-03T05:45:24;96253.00;;;17.67;98.89
42001;BME280;27689;48.390;10.856;2022-08-03T05:48:08;96262.50;;;17.76;98.71
42001;BME280;27689;48.390;10.856;2022-08-03T05:50:52;96255.44;;;17.83;98.28
42001;BME280;27689;48.390;10.856;2022-08-03T05:53:36;96251.03;;;17.90;97.52
42001;BME280;27689;48.390;10.856;2022-08-03T05:56:22;96251.91;;;17.97;97.00
42001;BME280;27689;48.390;10.856;2022-08-03T05:59:07;96248.31;;;18.05;96.75
42001;BME280;27689;48.390;10.856;2022-08-03T06:01:51;96246.34;;;18.14;96.04
42001;BME280;27689;48.390;10.856;2022-08-03T06:04:35;96246.66;;;18.25;95.30
42001;BME280;27689;48.390;10.856;2022-08-03T06:07:19;96249.19;;;18.33;94.94
42001;BME280;27689;48.390;10.856;2022-08-03T06:10:04;96239.44;;;18.41;95.02
42001;BME280;27689;48.390;10.856;2022-08-03T06:12:48;96248.34;;;18.54;95.46
42001;BME280;27689;48.390;10.856;2022-08-03T06:15:33;96245.56;;;18.62;94.52
42001;BME280;27689;48.390;10.856;2022-08-03T06:18:17;96256.00;;;18.71;93.73
42001;BME280;27689;48.390;10.856;2022-08-03T06:21:02;96252.66;;;18.83;94.11
42001;BME280;27689;48.390;10.856;2022-08-03T06:23:46;96251.66;;;18.91;93.48
42001;BME280;27689;48.390;10.856;2022-08-03T06:26:31;96246.03;;;19.07;92.33
42001;BME280;27689;48.390;10.856;2022-08-03T06:29:15;96244.47;;;19.19;91.08
42001;BME280;27689;48.390;10.856;2022-08-03T06:31:59;96251.25;;;19.28;90.98
42001;BME280;27689;48.390;10.856;2022-08-03T06:34:43;96258.66;;;19.40;90.97
42001;BME280;27689;48.390;10.856;2022-08-03T06:37:27;96258.94;;;19.51;90.86
42001;BME280;27689;48.390;10.856;2022-08-03T06:40:13;96250.38;;;19.62;89.93
42001;BME280;27689;48.390;10.856;2022-08-03T06:42:59;96259.88;;;19.91;85.47
42001;BME280;27689;48.390;10.856;2022-08-03T06:45:43;96253.34;;;20.07;84.68
42001;BME280;27689;48.390;10.856;2022-08-03T06:48:27;96257.47;;;20.29;82.75
42001;BME280;27689;48.390;10.856;2022-08-03T06:51:11;96261.19;;;20.41;82.64
42001;BME280;27689;48.390;10.856;2022-08-03T06:53:55;96259.97;;;20.51;83.03
42001;BME280;27689;48.390;10.856;2022-08-03T06:56:39;96249.50;;;20.69;82.57
42001;BME280;27689;48.390;10.856;2022-08-03T06:59:23;96253.81;;;20.76;80.34
42001;BME280;27689;48.390;10.856;2022-08-03T07:02:07;96257.91;;;20.92;81.17
42001;BME280;27689;48.390;10.856;2022-08-03T07:04:52;96259.50;;;21.06;81.41
42001;BME280;27689;48.390;10.856;2022-08-03T07:07:36;96254.34;;;21.31;80.04
42001;BME280;27689;48.390;10.856;2022-08-03T07:10:20;96261.44;;;21.51;78.97
42001;BME280;27689;48.390;10.856;2022-08-03T07:13:04;96252.72;;;21.68;77.64
42001;BME280;27689;48.390;10.856;2022-08-03T07:15:49;96250.38;;;21.85;77.28
42001;BME280;27689;48.390;10.856;2022-08-03T07:18:37;96251.97;;;21.99;76.25
42001;BME280;27689;48.390;10.856;2022-08-03T07:21:21;96243.31;;;22.10;75.95
42001;BME280;27689;48.390;10.856;2022-08-03T07:24:05;96248.47;;;22.30;71.98
42001;BME280;27689;48.390;10.856;2022-08-03T07:26:49;96244.84;;;22.49;71.71
42001;BME280;27689;48.390;10.856;2022-08-03T07:29:34;96234.06;;;22.63;70.28
42001;BME280;27689;48.390;10.856;2022-08-03T07:32:19;96247.91;;;22.78;69.81
42001;BME280;27689;48.390;10.856;2022-08-03T07:35:04;96245.72;;;22.93;69.24
42001;BME280;27689;48.390;10.856;2022-08-03T07:37:49;96243.88;;;23.12;68.56
42001;BME280;27689;48.390;10.856;2022-08-03T07:40:33;96236.38;;;23.39;64.51
42001;BME280;27689;48.390;10.856;2022-08-03T07:43:17;96237.66;;;23.54;65.63
42001;BME280;27689;48.390;10.856;2022-08-03T07:46:01;96238.59;;;23.60;65.75
42001;BME280;27689;48.390;10.856;2022-08-03T07:48:46;96239.94;;;23.69;66.81
42001;BME280;27689;48.390;10.856;2022-08-03T07:51:30;96231.13;;;23.80;68.08
42001;BME280;27689;48.390;10.856;2022-08-03T07:54:14;96233.03;;;23.91;66.31
42001;BME280;27689;48.390;10.856;2022-08-03T07:56:58;96229.03;;;24.12;64.33
42001;BME280;27689;48.390;10.856;2022-08-03T07:59:44;96226.00;;;24.20;65.77
42001;BME280;27689;48.390;10.856;2022-08-03T08:02:28;96232.50;;;24.31;65.53
42001;BME280;27689;48.390;10.856;2022-08-03T08:05:13;96232.50;;;24.43;65.82
42001;BME280;27689;48.390;10.856;2022-08-03T08:07:57;96227.53;;;24.58;63.69
42001;BME280;27689;48.390;10.856;2022-08-03T08:10:41;96223.66;;;24.66;64.04
42001;BME280;27689;48.390;10.856;2022-08-03T08:13:25;96221.47;;;24.74;63.69
42001;BME280;27689;48.390;10.856;2022-08-03T08:16:09;96222.19;;;24.93;62.62
42001;BME280;27689;48.390;10.856;2022-08-03T08:18:53;96226.47;;;25.17;60.87
42001;BME280;27689;48.390;10.856;2022-08-03T08:21:37;96218.06;;;25.25;61.42
42001;BME280;27689;48.390;10.856;2022-08-03T08:24:20;96218.59;;;25.39;61.09
42001;BME280;27689;48.390;10.856;2022-08-03T08:27:04;96213.25;;;25.51;60.96
42001;BME280;27689;48.390;10.856;2022-08-03T08:29:48;96214.63;;;25.93;55.88
42001;BME280;27689;48.390;10.856;2022-08-03T08:32:33;96219.25;;;25.98;57.58
42001;BME280;27689;48.390;10.856;2022-08-03T08:35:17;96222.25;;;26.02;58.20
42001;BME280;27689;48.390;10.856;2022-08-03T08:38:02;96215.19;;;26.41;54.81
42001;BME280;27689;48.390;10.856;2022-08-03T08:40:47;96219.91;;;26.67;55.56
42001;BME280;27689;48.390;10.856;2022-08-03T08:43:31;96214.06;;;26.70;54.03
42001;BME280;27689;48.390;10.856;2022-08-03T08:46:17;96217.72;;;26.97;53.69
42001;BME280;27689;48.390;10.856;2022-08-03T08:49:03;96211.97;;;27.11;50.48
42001;BME280;27689;48.390;10.856;2022-08-03T08:51:48;96211.84;;;27.22;49.36
42001;BME280;27689;48.390;10.856;2022-08-03T08:54:34;96215.56;;;27.38;52.79
42001;BME280;27689;48.390;10.856;2022-08-03T08:57:21;96209.28;;;27.54;48.93
42001;BME280;27689;48.390;10.856;2022-08-03T09:00:07;96217.13;;;27.78;48.97
42001;BME280;27689;48.390;10.856;2022-08-03T09:02:57;96217.84;;;27.95;48.02
42001;BME280;27689;48.390;10.856;2022-08-03T09:05:42;96213.16;;;28.12;46.02
42001;BME280;27689;48.390;10.856;2022-08-03T09:08:28;96216.53;;;28.24;47.78
42001;BME280;27689;48.390;10.856;2022-08-03T09:11:12;96214.91;;;28.23;46.13
42001;BME280;27689;48.390;10.856;2022-08-03T09:13:57;96213.41;;;28.32;48.41
42001;BME280;27689;48.390;10.856;2022-08-03T09:17:01;96215.75;;;28.56;44.15
42001;BME280;27689;48.390;10.856;2022-08-03T09:20:05;96213.97;;;28.71;44.00
42001;BME280;27689;48.390;10.856;2022-08-03T09:23:00;96217.84;;;28.81;44.46
42001;BME280;27689;48.390;10.856;2022-08-03T09:25:44;96207.69;;;28.98;44.96
42001;BME280;27689;48.390;10.856;2022-08-03T09:28:34;96211.06;;;29.20;41.48
42001;BME280;27689;48.390;10.856;2022-08-03T09:31:18;96209.28;;;29.36;41.57
42001;BME280;27689;48.390;10.856;2022-08-03T09:34:07;96208.75;;;29.39;43.51
42001;BME280;27689;48.390;10.856;2022-08-03T09:36:52;96203.13;;;29.45;42.36
42001;BME280;27689;48.390;10.856;2022-08-03T09:39:36;96198.34;;;29.73;40.16
42001;BME280;27689;48.390;10.856;2022-08-03T09:42:20;96203.53;;;29.90;42.52
42001;BME280;27689;48.390;10.856;2022-08-03T09:45:06;96198.72;;;30.02;38.29
42001;BME280;27689;48.390;10.856;2022-08-03T09:48:23;96194.44;;;30.21;39.96
42001;BME280;27689;48.390;10.856;2022-08-03T09:51:07;96205.22;;;30.06;39.87
42001;BME280;27689;48.390;10.856;2022-08-03T09:53:51;96197.13;;;30.21;37.01
42001;BME280;27689;48.390;10.856;2022-08-03T09:56:44;96203.88;;;30.13;33.99
42001;BME280;27689;48.390;10.856;2022-08-03T09:59:31;96199.31;;;30.24;36.29
42001;BME280;27689;48.390;10.856;2022-08-03T10:02:23;96204.47;;;30.41;36.25
42001;BME280;27689;48.390;10.856;2022-08-03T10:05:10;96207.69;;;30.53;35.44
42001;BME280;27689;48.390;10.856;2022-08-03T10:07:55;96194.47;;;30.62;35.70
42001;BME280;27689;48.390;10.856;2022-08-03T10:10:43;96190.66;;;30.78;33.75
42001;BME280;27689;48.390;10.856;2022-08-03T10:13:27;96191.72;;;30.92;34.94
42001;BME280;27689;48.390;10.856;2022-08-03T10:16:11;96182.75;;;31.07;34.92
42001;BME280;27689;48.390;10.856;2022-08-03T10:18:57;96191.41;;;31.19;36.33
42001;BME280;27689;48.390;10.856;2022-08-03T10:21:47;96188.47;;;31.15;37.44
42001;BME280;27689;48.390;10.856;2022-08-03T10:24:34;96183.00;;;31.31;31.50
42001;BME280;27689;48.390;10.856;2022-08-03T10:27:22;96182.47;;;31.29;32.03
42001;BME280;27689;48.390;10.856;2022-08-03T10:30:09;96176.72;;;31.45;32.87
42001;BME280;27689;48.390;10.856;2022-08-03T10:33:01;96178.81;;;31.53;33.04
42001;BME280;27689;48.390;10.856;2022-08-03T10:35:50;96172.59;;;31.53;32.59
42001;BME280;27689;48.390;10.856;2022-08-03T10:38:48;96169.03;;;31.68;31.08
42001;BME280;27689;48.390;10.856;2022-08-03T10:41:39;96167.03;;;31.83;33.69
42001;BME280;27689;48.390;10.856;2022-08-03T10:44:25;96170.78;;;31.93;33.74
42001;BME280;27689;48.390;10.856;2022-08-03T10:47:12;96166.41;;;31.97;33.73
42001;BME280;27689;48.390;10.856;2022-08-03T10:49:56;96165.31;;;32.03;34.76
42001;BME280;27689;48.390;10.856;2022-08-03T10:52:52;96156.91;;;32.04;34.68
42001;BME280;27689;48.390;10.856;2022-08-03T10:55:41;96142.28;;;32.00;35.87
42001;BME280;27689;48.390;10.856;2022-08-03T10:58:46;96157.28;;;31.87;31.74
42001;BME280;27689;48.390;10.856;2022-08-03T11:01:48;96152.06;;;31.91;34.35
42001;BME280;27689;48.390;10.856;2022-08-03T11:04:33;96157.19;;;31.98;33.56
42001;BME280;27689;48.390;10.856;2022-08-03T11:10:03;96150.25;;;32.26;33.50
42001;BME280;27689;48.390;10.856;2022-08-03T11:12:48;96149.13;;;32.32;34.42
42001;BME280;27689;48.390;10.856;2022-08-03T11:15:33;96145.59;;;32.31;30.64
42001;BME280;27689;48.390;10.856;2022-08-03T11:18:19;96147.16;;;32.37;31.10
42001;BME280;27689;48.390;10.856;2022-08-03T11:21:03;96142.91;;;32.26;30.54
42001;BME280;27689;48.390;10.856;2022-08-03T11:23:47;96136.66;;;32.31;30.92
42001;BME280;27689;48.390;10.856;2022-08-03T11:26:32;96147.63;;;32.49;34.47
42001;BME280;27689;48.390;10.856;2022-08-03T11:29:29;96129.63;;;32.58;32.04
42001;BME280;27689;48.390;10.856;2022-08-03T11:35:29;96126.94;;;32.53;33.84
42001;BME280;27689;48.390;10.856;2022-08-03T11:38:13;96122.53;;;32.63;33.91
42001;BME280;27689;48.390;10.856;2022-08-03T11:40:57;96128.38;;;32.46;30.74
42001;BME280;27689;48.390;10.856;2022-08-03T11:43:45;96125.59;;;32.51;31.75
42001;BME280;27689;48.390;10.856;2022-08-03T11:46:36;96126.41;;;32.51;32.59
42001;BME280;27689;48.390;10.856;2022-08-03T11:49:21;96125.97;;;32.73;32.09
42001;BME280;27689;48.390;10.856;2022-08-03T11:52:06;96124.34;;;32.96;30.37
42001;BME280;27689;48.390;10.856;2022-08-03T11:54:52;96127.97;;;32.91;28.72
42001;BME280;27689;48.390;10.856;2022-08-03T11:57:40;96121.94;;;32.66;27.91
42001;BME280;27689;48.390;10.856;2022-08-03T12:00:31;96119.41;;;32.79;27.73
42001;BME280;27689;48.390;10.856;2022-08-03T12:03:18;96113.97;;;33.03;31.71
42001;BME280;27689;48.390;10.856;2022-08-03T12:06:08;96118.13;;;33.19;32.38
42001;BME280;27689;48.390;10.856;2022-08-03T12:08:52;96114.66;;;33.14;30.25
42001;BME280;27689;48.390;10.856;2022-08-03T12:11:37;96110.59;;;33.11;26.78
42001;BME280;27689;48.390;10.856;2022-08-03T12:14:21;96105.31;;;33.01;26.94
42001;BME280;27689;48.390;10.856;2022-08-03T12:17:04;96109.47;;;33.17;28.23
42001;BME280;27689;48.390;10.856;2022-08-03T12:19:49;96098.53;;;33.22;26.37
42001;BME280;27689;48.390;10.856;2022-08-03T12:22:35;96101.97;;;33.09;26.83
42001;BME280;27689;48.390;10.856;2022-08-03T12:25:22;96098.81;;;33.45;28.14
42001;BME280;27689;48.390;10.856;2022-08-03T12:28:18;96106.78;;;33.79;30.66
42001;BME280;27689;48.390;10.856;2022-08-03T12:31:06;96083.78;;;33.90;29.15
42001;BME280;27689;48.390;10.856;2022-08-03T12:34:01;96086.84;;;33.65;26.14
42001;BME280;27689;48.390;10.856;2022-08-03T12:36:51;96091.19;;;34.03;27.22
42001;BME280;27689;48.390;10.856;2022-08-03T12:39:35;96083.56;;;34.19;26.90
42001;BME280;27689;48.390;10.856;2022-08-03T12:42:19;96089.72;;;34.43;24.82
42001;BME280;27689;48.390;10.856;2022-08-03T12:45:24;96085.59;;;34.59;27.37
42001;BME280;27689;48.390;10.856;2022-08-03T12:48:09;96085.47;;;34.83;28.83
42001;BME280;27689;48.390;10.856;2022-08-03T12:51:09;96092.34;;;34.94;26.63
42001;BME280;27689;48.390;10.856;2022-08-03T12:53:55;96082.25;;;34.95;24.66
42001;BME280;27689;48.390;10.856;2022-08-03T12:59:42;96079.59;;;34.76;24.23
42001;BME280;27689;48.390;10.856;2022-08-03T13:02:28;96072.00;;;34.73;25.09
42001;BME280;27689;48.390;10.856;2022-08-03T13:05:13;96068.63;;;34.95;26.24
42001;BME280;27689;48.390;10.856;2022-08-03T13:07:58;96070.94;;;35.15;27.49
42001;BME280;27689;48.390;10.856;2022-08-03T13:10:42;96064.06;;;35.04;27.14
42001;BME280;27689;48.390;10.856;2022-08-03T13:13:38;96069.41;;;35.37;26.81
42001;BME280;27689;48.390;10.856;2022-08-03T13:16:22;96062.41;;;35.58;26.84
42001;BME280;27689;48.390;10.856;2022-08-03T13:19:07;96063.38;;;35.62;25.09
42001;BME280;27689;48.390;10.856;2022-08-03T13:21:53;96068.56;;;35.50;23.76
42001;BME280;27689;48.390;10.856;2022-08-03T13:24:38;96063.47;;;35.70;24.89
42001;BME280;27689;48.390;10.856;2022-08-03T13:27:23;96066.75;;;35.59;24.00
42001;BME280;27689;48.390;10.856;2022-08-03T13:30:08;96052.56;;;35.34;22.56
42001;BME280;27689;48.390;10.856;2022-08-03T13:32:52;96051.38;;;35.27;24.43
42001;BME280;27689;48.390;10.856;2022-08-03T13:35:37;96055.19;;;35.40;26.02
42001;BME280;27689;48.390;10.856;2022-08-03T13:38:20;96052.13;;;35.55;24.41
42001;BME280;27689;48.390;10.856;2022-08-03T13:41:04;96045.97;;;35.85;25.79
42001;BME280;27689;48.390;10.856;2022-08-03T13:43:48;96052.38;;;36.03;25.69
42001;BME280;27689;48.390;10.856;2022-08-03T13:46:32;96048.16;;;36.19;24.99
42001;BME280;27689;48.390;10.856;2022-08-03T13:49:16;96049.56;;;36.17;23.49
42001;BME280;27689;48.390;10.856;2022-08-03T13:52:00;96043.38;;;36.25;24.41
42001;BME280;27689;48.390;10.856;2022-08-03T13:54:45;96033.31;;;36.12;23.04
42001;BME280;27689;48.390;10.856;2022-08-03T13:57:29;96032.72;;;36.15;24.52
42001;BME280;27689;48.390;10.856;2022-08-03T14:00:13;96033.00;;;36.13;24.15
42001;BME280;27689;48.390;10.856;2022-08-03T14:02:59;96031.66;;;36.02;23.94
42001;BME280;27689;48.390;10.856;2022-08-03T14:05:44;96031.66;;;35.80;25.69
42001;BME280;27689;48.390;10.856;2022-08-03T14:08:28;96027.94;;;35.40;23.79
42001;BME280;27689;48.390;10.856;2022-08-03T14:11:12;96029.06;;;35.11;23.49
42001;BME280;27689;48.390;10.856;2022-08-03T14:13:56;96027.78;;;34.95;24.47
42001;BME280;27689;48.390;10.856;2022-08-03T14:16:39;96019.69;;;34.76;23.33
42001;BME280;27689;48.390;10.856;2022-08-03T14:19:23;96021.59;;;34.48;25.04
42001;BME280;27689;48.390;10.856;2022-08-03T14:22:07;96025.19;;;34.30;23.87
42001;BME280;27689;48.390;10.856;2022-08-03T14:24:51;96020.66;;;34.25;24.38
42001;BME280;27689;48.390;10.856;2022-08-03T14:27:35;96010.78;;;34.29;25.74
42001;BME280;27689;48.390;10.856;2022-08-03T14:30:19;96017.50;;;33.86;23.85
42001;BME280;27689;48.390;10.856;2022-08-03T14:33:03;96018.13;;;33.83;25.02
42001;BME280;27689;48.390;10.856;2022-08-03T14:35:47;96016.31;;;33.92;24.62
42001;BME280;27689;48.390;10.856;2022-08-03T14:38:31;96020.63;;;33.79;26.07
42001;BME280;27689;48.390;10.856;2022-08-03T14:41:15;96014.66;;;33.77;25.06
42001;BME280;27689;48.390;10.856;2022-08-03T14:43:59;96018.19;;;33.78;25.93